Time;durP1;ratioP1;P1;durP2;ratioP2;P2;SDS_P1;SDS_P2;PMS_P1;PMS_P2;Temp;Humidity;BMP_temperature;BMP_pressure;BME280_temperature;BME280_humidity;BME280_pressure;Samples;Min_cycle;Max_cycle;Signal;HPM_P1;HPM_P2
2023/09/28 00:00:36;;;;;;;0.00;0.00;;;;;;;;;;4995641;28;20030;-85
2023/09/28 00:03:03;;;;;;;0.00;0.00;;;;;;;;;;4980325;28;20124;-85
2023/09/28 00:05:29;;;;;;;0.00;0.00;;;;;;;;;;4988358;28;20105;-85
2023/09/28 00:07:57;;;;;;;0.00;0.00;;;;;;;;;;4982842;28;20089;-84
2023/09/28 00:10:23;;;;;;;0.05;0.00;;;;;;;;;;4979782;28;20034;-84
2023/09/28 00:12:49;;;;;;;0.00;0.00;;;;;;;;;;4963229;28;20460;-85
2023/09/28 00:15:15;;;;;;;0.00;0.00;;;;;;;;;;4969592;28;20699;-84
2023/09/28 00:17:40;;;;;;;0.00;0.00;;;;;;;;;;4977195;28;20051;-84
2023/09/28 00:20:13;;;;;;;0.00;0.00;;;;;;;;;;4959911;28;20050;-85
2023/09/28 00:22:41;;;;;;;0.00;0.00;;;;;;;;;;4975662;28;20117;-84
2023/09/28 00:25:10;;;;;;;0.00;0.00;;;;;;;;;;4960401;28;20030;-84
2023/09/28 00:27:39;;;;;;;0.00;0.00;;;;;;;;;;4979214;28;20117;-84
2023/09/28 00:30:29;;;;;;;0.00;0.00;;;;;;;;;;4959709;28;20050;-84
2023/09/28 00:32:57;;;;;;;0.00;0.00;;;;;;;;;;4977081;28;20031;-84
2023/09/28 00:35:23;;;;;;;0.00;0.00;;;;;;;;;;4979336;28;20084;-84
2023/09/28 00:37:49;;;;;;;0.00;0.00;;;;;;;;;;4946468;28;20034;-84
2023/09/28 00:40:48;;;;;;;0.00;0.00;;;;;;;;;;4995229;28;20037;-85
2023/09/28 00:43:07;;;;;;;0.00;0.00;;;;;;;;;;4979411;28;20380;-84
2023/09/28 00:45:32;;;;;;;0.00;0.00;;;;;;;;;;4970173;28;20034;-84
2023/09/28 00:48:02;;;;;;;0.00;0.00;;;;;;;;;;4996188;28;20424;-84
2023/09/28 00:50:28;;;;;;;0.00;0.00;;;;;;;;;;4978733;28;20041;-84
2023/09/28 00:52:57;;;;;;;0.00;0.00;;;;;;;;;;4995678;28;20034;-85
2023/09/28 00:55:23;;;;;;;0.00;0.00;;;;;;;;;;4984378;28;20427;-85
2023/09/28 00:57:48;;;;;;;0.00;0.00;;;;;;;;;;4983956;28;20121;-85
2023/09/28 01:00:28;;;;;;;0.00;0.00;;;;;;;;;;5000250;28;20030;-85
2023/09/28 01:02:56;;;;;;;0.00;0.00;;;;;;;;;;4948274;28;20031;-85
2023/09/28 01:05:34;;;;;;;0.00;0.00;;;;;;;;;;5003427;28;20039;-85
2023/09/28 01:08:14;;;;;;;0.00;0.00;;;;;;;;;;4978608;28;20039;-85
2023/09/28 01:10:43;;;;;;;;;;;;;;;;;;4992133;28;20026;-85
2023/09/28 01:13:12;;;;;;;0.17;0.00;;;;;;;;;;4980916;28;19910;-86
2023/09/28 01:15:41;;;;;;;0.08;0.00;;;;;;;;;;4993399;28;20065;-85
2023/09/28 01:18:10;;;;;;;0.00;0.00;;;;;;;;;;4996318;28;20022;-85
2023/09/28 01:20:37;;;;;;;0.00;0.00;;;;;;;;;;4978326;28;20427;-84
2023/09/28 01:23:04;;;;;;;0.10;0.00;;;;;;;;;;4978795;28;20026;-84
2023/09/28 01:25:30;;;;;;;0.00;0.00;;;;;;;;;;4982522;28;20109;-85
2023/09/28 01:27:56;;;;;;;0.00;0.00;;;;;;;;;;4977616;28;20141;-85
2023/09/28 01:30:22;;;;;;;0.00;0.00;;;;;;;;;;4962047;28;20038;-85
2023/09/28 01:32:48;;;;;;;0.00;0.00;;;;;;;;;;4994448;28;20121;-85
2023/09/28 01:35:13;;;;;;;0.00;0.00;;;;;;;;;;4991660;28;20113;-85
2023/09/28 01:37:45;;;;;;;0.00;0.00;;;;;;;;;;4995134;28;20042;-85
2023/09/28 01:40:13;;;;;;;0.00;0.00;;;;;;;;;;4995251;28;20034;-85
2023/09/28 01:42:38;;;;;;;0.00;0.00;;;;;;;;;;5004998;28;20033;-85
2023/09/28 01:45:04;;;;;;;0.00;0.00;;;;;;;;;;4999031;28;20030;-85
2023/09/28 01:47:30;;;;;;;0.00;0.00;;;;;;;;;;4994579;28;20034;-85
2023/09/28 01:49:55;;;;;;;0.00;0.00;;;;;;;;;;4994715;28;20038;-85
2023/09/28 01:52:21;;;;;;;0.00;0.00;;;;;;;;;;4994978;28;20387;-85
2023/09/28 01:54:46;;;;;;;0.00;0.00;;;;;;;;;;4977173;28;20027;-85
2023/09/28 01:57:12;;;;;;;0.00;0.00;;;;;;;;;;4994366;28;20034;-85
2023/09/28 01:59:37;;;;;;;0.00;0.00;;;;;;;;;;4994544;28;20392;-85
2023/09/28 02:02:04;;;;;;;0.00;0.00;;;;;;;;;;5000636;28;20038;-86
2023/09/28 02:04:29;;;;;;;0.00;0.00;;;;;;;;;;4997502;28;20089;-85
2023/09/28 02:06:55;;;;;;;0.00;0.00;;;;;;;;;;4994583;28;20034;-86
2023/09/28 02:09:21;;;;;;;0.00;0.00;;;;;;;;;;4994735;28;20030;-85
2023/09/28 02:11:47;;;;;;;0.00;0.00;;;;;;;;;;4977255;28;20050;-85
2023/09/28 02:14:12;;;;;;;0.00;0.00;;;;;;;;;;4994714;28;20080;-85
2023/09/28 02:16:38;;;;;;;0.00;0.00;;;;;;;;;;4994821;28;20503;-86
2023/09/28 02:19:04;;;;;;;0.00;0.00;;;;;;;;;;4992414;28;20070;-85
2023/09/28 02:21:30;;;;;;;0.00;0.00;;;;;;;;;;5003250;28;20104;-85
2023/09/28 02:23:58;;;;;;;0.00;0.00;;;;;;;;;;4986203;28;20034;-85
2023/09/28 02:26:24;;;;;;;0.00;0.00;;;;;;;;;;4994551;28;20035;-86
2023/09/28 02:28:50;;;;;;;0.00;0.00;;;;;;;;;;4977205;28;20030;-86
2023/09/28 02:31:15;;;;;;;0.00;0.00;;;;;;;;;;4998344;28;20058;-85
2023/09/28 02:33:41;;;;;;;0.00;0.00;;;;;;;;;;4961482;28;20153;-85
2023/09/28 02:36:08;;;;;;;0.00;0.00;;;;;;;;;;4981962;28;20467;-85
2023/09/28 02:38:33;;;;;;;0.00;0.00;;;;;;;;;;5012164;28;20023;-84
2023/09/28 02:40:59;;;;;;;0.00;0.00;;;;;;;;;;5004028;28;20531;-85
2023/09/28 02:43:24;;;;;;;0.00;0.00;;;;;;;;;;5017610;28;20095;-85
2023/09/28 02:45:50;;;;;;;0.00;0.00;;;;;;;;;;4996171;28;20034;-85
2023/09/28 02:48:16;;;;;;;0.00;0.00;;;;;;;;;;4995826;28;20036;-84
2023/09/28 02:50:42;;;;;;;0.00;0.00;;;;;;;;;;4997082;28;20041;-84
2023/09/28 02:53:08;;;;;;;0.00;0.00;;;;;;;;;;4998044;28;20030;-85
2023/09/28 02:55:33;;;;;;;0.00;0.00;;;;;;;;;;4980811;28;20026;-85
2023/09/28 02:57:59;;;;;;;0.00;0.00;;;;;;;;;;4997927;28;20034;-84
2023/09/28 03:00:32;;;;;;;0.00;0.00;;;;;;;;;;5004527;28;20034;-84
2023/09/28 03:03:00;;;;;;;0.00;0.00;;;;;;;;;;4973827;28;20121;-85
2023/09/28 03:05:26;;;;;;;0.17;0.00;;;;;;;;;;4980687;28;20026;-85
2023/09/28 03:07:51;;;;;;;0.00;0.00;;;;;;;;;;4980664;28;20062;-84
2023/09/28 03:10:17;;;;;;;0.00;0.00;;;;;;;;;;4980523;28;20114;-85
2023/09/28 03:12:45;;;;;;;0.00;0.00;;;;;;;;;;4998202;28;20096;-85
2023/09/28 03:15:11;;;;;;;0.00;0.00;;;;;;;;;;4980915;28;20129;-85
2023/09/28 03:17:37;;;;;;;0.00;0.00;;;;;;;;;;4997407;28;20424;-85
2023/09/28 03:20:24;;;;;;;0.22;0.00;;;;;;;;;;4955023;28;20524;-84
2023/09/28 03:22:49;;;;;;;0.00;0.00;;;;;;;;;;4984128;28;20100;-85
2023/09/28 03:25:17;;;;;;;0.00;0.00;;;;;;;;;;4980317;28;20034;-85
2023/09/28 03:27:44;;;;;;;0.00;0.00;;;;;;;;;;4980264;28;20046;-85
2023/09/28 03:30:11;;;;;;;0.00;0.00;;;;;;;;;;4964171;28;20031;-85
2023/09/28 03:32:38;;;;;;;0.00;0.00;;;;;;;;;;4997333;28;20084;-84
2023/09/28 03:35:05;;;;;;;0.00;0.00;;;;;;;;;;4964121;28;20045;-87
2023/09/28 03:37:30;;;;;;;0.00;0.00;;;;;;;;;;4991733;28;20026;-84
2023/09/28 03:39:58;;;;;;;0.00;0.00;;;;;;;;;;5003310;28;20035;-85
2023/09/28 03:42:26;;;;;;;0.00;0.00;;;;;;;;;;5001152;28;20038;-85
2023/09/28 03:44:52;;;;;;;0.00;0.00;;;;;;;;;;4998691;28;20033;-85
2023/09/28 03:47:19;;;;;;;0.00;0.00;;;;;;;;;;5015186;28;20037;-85
2023/09/28 03:49:44;;;;;;;0.00;0.00;;;;;;;;;;4998625;28;20025;-85
2023/09/28 03:52:10;;;;;;;0.00;0.00;;;;;;;;;;5016843;28;20088;-85
2023/09/28 03:54:35;;;;;;;0.00;0.00;;;;;;;;;;4999071;28;20442;-85
2023/09/28 03:57:01;;;;;;;0.00;0.00;;;;;;;;;;4982323;28;20026;-85
2023/09/28 03:59:26;;;;;;;0.00;0.00;;;;;;;;;;5029192;28;20029;-85
2023/09/28 04:01:52;;;;;;;0.00;0.00;;;;;;;;;;4993093;28;20034;-85
2023/09/28 04:04:18;;;;;;;0.00;0.00;;;;;;;;;;4979013;28;20030;-85
2023/09/28 04:06:44;;;;;;;0.08;0.00;;;;;;;;;;4996634;28;20030;-85
2023/09/28 04:09:10;;;;;;;0.00;0.00;;;;;;;;;;4962993;28;20377;-85
2023/09/28 04:11:37;;;;;;;0.00;0.00;;;;;;;;;;4979615;28;20130;-85
2023/09/28 04:14:02;;;;;;;0.00;0.00;;;;;;;;;;4979698;28;20027;-85
2023/09/28 04:16:28;;;;;;;0.00;0.00;;;;;;;;;;4996504;28;20026;-85
2023/09/28 04:18:53;;;;;;;0.00;0.00;;;;;;;;;;4985725;28;20034;-84
2023/09/28 04:21:19;;;;;;;0.00;0.00;;;;;;;;;;4996697;28;21305;-84
2023/09/28 04:23:45;;;;;;;0.00;0.00;;;;;;;;;;4995986;28;20030;-84
2023/09/28 04:26:10;;;;;;;0.00;0.00;;;;;;;;;;4978832;28;20057;-84
2023/09/28 04:28:36;;;;;;;0.00;0.00;;;;;;;;;;4997381;28;20160;-83
2023/09/28 04:31:01;;;;;;;0.00;0.00;;;;;;;;;;4997296;28;20026;-83
2023/09/28 04:33:27;;;;;;;0.00;0.00;;;;;;;;;;4996699;28;20030;-84
2023/09/28 04:35:53;;;;;;;0.00;0.00;;;;;;;;;;4997740;28;20042;-83
2023/09/28 04:38:19;;;;;;;0.00;0.00;;;;;;;;;;5003752;28;20116;-83
2023/09/28 04:40:44;;;;;;;0.00;0.00;;;;;;;;;;4979336;28;20065;-90
2023/09/28 04:43:10;;;;;;;0.00;0.00;;;;;;;;;;4973572;28;20038;-90
2023/09/28 04:45:53;;;;;;;0.00;0.00;;;;;;;;;;4968275;28;20106;-87
2023/09/28 04:48:19;;;;;;;0.00;0.00;;;;;;;;;;4994282;28;20036;-87
2023/09/28 04:50:44;;;;;;;0.00;0.00;;;;;;;;;;4989564;28;20037;-85
2023/09/28 04:53:10;;;;;;;0.00;0.00;;;;;;;;;;5001033;28;20234;-89
2023/09/28 04:55:50;;;;;;;0.00;0.00;;;;;;;;;;4991274;28;20038;-91
2023/09/28 04:58:35;;;;;;;0.00;0.00;;;;;;;;;;4984611;28;20030;-90
2023/09/28 05:01:31;;;;;;;0.00;0.00;;;;;;;;;;4987740;28;20049;-88
2023/09/28 05:03:57;;;;;;;0.00;0.00;;;;;;;;;;4987141;28;20069;-88
2023/09/28 05:06:23;;;;;;;0.00;0.00;;;;;;;;;;4994131;28;20094;-90
2023/09/28 05:08:50;;;;;;;0.00;0.00;;;;;;;;;;4993619;28;20061;-90
2023/09/28 05:11:16;;;;;;;0.00;0.00;;;;;;;;;;5004494;28;20061;-88
2023/09/28 05:13:42;;;;;;;0.00;0.00;;;;;;;;;;4980981;28;20313;-87
2023/09/28 05:16:07;;;;;;;0.00;0.00;;;;;;;;;;4983905;28;20393;-88
2023/09/28 05:18:51;;;;;;;0.00;0.00;;;;;;;;;;5004294;28;20090;-89
2023/09/28 05:21:17;;;;;;;0.00;0.00;;;;;;;;;;5005312;28;20050;-87
2023/09/28 05:23:44;;;;;;;0.00;0.00;;;;;;;;;;4987692;28;20037;-90
2023/09/28 05:26:10;;;;;;;0.00;0.00;;;;;;;;;;4998011;28;20053;-90
2023/09/28 05:28:38;;;;;;;0.00;0.00;;;;;;;;;;4944046;28;20035;-88
2023/09/28 05:31:04;;;;;;;0.00;0.00;;;;;;;;;;4976779;28;20049;-88
2023/09/28 05:33:47;;;;;;;0.00;0.00;;;;;;;;;;4982995;28;20027;-88
2023/09/28 05:36:13;;;;;;;0.00;0.00;;;;;;;;;;4973315;28;20050;-87
2023/09/28 05:38:39;;;;;;;0.00;0.00;;;;;;;;;;4992193;28;20098;-88
2023/09/28 05:41:05;;;;;;;0.00;0.00;;;;;;;;;;4985821;28;20042;-88
2023/09/28 05:43:30;;;;;;;0.00;0.00;;;;;;;;;;4970536;28;20087;-89
2023/09/28 05:45:59;;;;;;;0.00;0.00;;;;;;;;;;4951476;28;20047;-87
2023/09/28 05:48:42;;;;;;;0.00;0.00;;;;;;;;;;4988630;23;20197;-89
2023/09/28 05:51:08;;;;;;;0.00;0.00;;;;;;;;;;4985399;28;20039;-90
2023/09/28 05:53:34;;;;;;;0.00;0.00;;;;;;;;;;4970307;28;20110;-88
2023/09/28 05:56:22;;;;;;;0.00;0.00;;;;;;;;;;4990144;28;20035;-90
2023/09/28 05:59:02;;;;;;;0.00;0.00;;;;;;;;;;4968989;28;20093;-91
2023/09/28 06:01:30;;;;;;;0.00;0.00;;;;;;;;;;4960430;28;20035;-89
2023/09/28 06:03:56;;;;;;;0.00;0.00;;;;;;;;;;4951473;28;20045;-83
2023/09/28 06:06:22;;;;;;;0.00;0.00;;;;;;;;;;4964489;28;20031;-84
2023/09/28 06:08:47;;;;;;;0.00;0.00;;;;;;;;;;4975054;28;20031;-85
2023/09/28 06:14:46;;;;;;;0.00;0.00;;;;;;;;;;5016309;23;20204;-86
2023/09/28 06:17:11;;;;;;;0.00;0.00;;;;;;;;;;4996223;28;20025;-82
2023/09/28 06:19:43;;;;;;;0.00;0.00;;;;;;;;;;5008525;28;20116;-84
2023/09/28 06:22:14;;;;;;;0.00;0.00;;;;;;;;;;5004059;28;20120;-84
2023/09/28 06:24:40;;;;;;;0.00;0.00;;;;;;;;;;5017578;28;20025;-83
2023/09/28 06:27:05;;;;;;;0.00;0.00;;;;;;;;;;5013138;28;20056;-81
2023/09/28 06:32:46;;;;;;;0.00;0.00;;;;;;;;;;4985344;28;20034;-90
2023/09/28 06:35:12;;;;;;;0.00;0.00;;;;;;;;;;5036886;28;20312;-82
2023/09/28 06:37:40;;;;;;;0.00;0.00;;;;;;;;;;5020598;28;20029;-83
2023/09/28 06:40:49;;;;;;;0.00;0.00;;;;;;;;;;5023221;28;20030;-85
2023/09/28 06:43:16;;;;;;;0.00;0.00;;;;;;;;;;5014378;23;20047;-88
2023/09/28 06:46:03;;;;;;;0.00;0.00;;;;;;;;;;5006417;28;20098;-90
2023/09/28 06:48:40;;;;;;;0.00;0.00;;;;;;;;;;4974528;28;20033;-88
2023/09/28 06:51:25;;;;;;;0.00;0.00;;;;;;;;;;5003960;28;20057;-86
2023/09/28 06:53:53;;;;;;;0.00;0.00;;;;;;;;;;5008198;28;20034;-88
2023/09/28 06:56:20;;;;;;;0.00;0.00;;;;;;;;;;5004029;28;20039;-86
2023/09/28 06:58:46;;;;;;;0.00;0.00;;;;;;;;;;5002448;28;20097;-85
2023/09/28 07:01:33;;;;;;;0.00;0.00;;;;;;;;;;4997182;28;20030;-87
2023/09/28 07:04:04;;;;;;;0.00;0.00;;;;;;;;;;4997034;28;20049;-89
2023/09/28 07:06:31;;;;;;;0.00;0.00;;;;;;;;;;4987699;28;20038;-89
2023/09/28 07:08:57;;;;;;;0.00;0.00;;;;;;;;;;4999605;28;20082;-89
2023/09/28 07:11:24;;;;;;;0.00;0.00;;;;;;;;;;4996114;28;20077;-91
2023/09/28 07:13:49;;;;;;;0.00;0.00;;;;;;;;;;5017374;28;20018;-88
2023/09/28 07:16:14;;;;;;;0.00;0.00;;;;;;;;;;5000195;28;20042;-86
2023/09/28 07:18:43;;;;;;;0.00;0.00;;;;;;;;;;4979857;28;20037;-85
2023/09/28 07:21:08;;;;;;;0.10;0.10;;;;;;;;;;4998485;28;20088;-86
2023/09/28 07:23:36;;;;;;;0.00;0.00;;;;;;;;;;4984779;28;20034;-91
2023/09/28 07:26:02;;;;;;;0.00;0.00;;;;;;;;;;4997767;28;20030;-87
2023/09/28 07:28:30;;;;;;;0.00;0.00;;;;;;;;;;4978268;28;20116;-86
2023/09/28 07:30:56;;;;;;;0.00;0.00;;;;;;;;;;5009464;28;20041;-87
2023/09/28 07:33:21;;;;;;;0.00;0.00;;;;;;;;;;4976698;28;20121;-90
2023/09/28 07:35:58;;;;;;;0.00;0.00;;;;;;;;;;5010034;28;20515;-89
2023/09/28 07:38:24;;;;;;;0.08;0.00;;;;;;;;;;5001364;28;20448;-89
2023/09/28 07:40:50;;;;;;;0.00;0.00;;;;;;;;;;5006882;23;20061;-83
2023/09/28 07:43:15;;;;;;;0.00;0.00;;;;;;;;;;4957952;28;20030;-82
2023/09/28 07:45:41;;;;;;;0.00;0.00;;;;;;;;;;5005818;28;20195;-83
2023/09/28 07:48:06;;;;;;;0.00;0.00;;;;;;;;;;4989626;28;20129;-82
2023/09/28 07:50:32;;;;;;;0.00;0.00;;;;;;;;;;4991366;28;20080;-82
2023/09/28 07:53:07;;;;;;;0.00;0.00;;;;;;;;;;4977131;28;20062;-82
2023/09/28 07:55:33;;;;;;;0.00;0.00;;;;;;;;;;4973180;28;20033;-83
2023/09/28 07:57:58;;;;;;;0.00;0.00;;;;;;;;;;4969299;28;20030;-83
2023/09/28 08:00:24;;;;;;;0.00;0.00;;;;;;;;;;4992474;28;20124;-82
2023/09/28 08:02:50;;;;;;;0.00;0.00;;;;;;;;;;4990071;28;20057;-84
2023/09/28 08:08:32;;;;;;;0.00;0.00;;;;;;;;;;4997337;23;20065;-85
2023/09/28 08:10:59;;;;;;;0.03;0.00;;;;;;;;;;4990418;28;20424;-89
2023/09/28 08:13:25;;;;;;;0.00;0.00;;;;;;;;;;4976447;28;20010;-92
2023/09/28 08:15:50;;;;;;;0.00;0.00;;;;;;;;;;5004647;28;20037;-87
2023/09/28 08:18:16;;;;;;;0.00;0.00;;;;;;;;;;4999582;28;20026;-82
2023/09/28 08:20:41;;;;;;;0.00;0.00;;;;;;;;;;4995265;28;20023;-85
2023/09/28 08:23:07;;;;;;;0.00;0.00;;;;;;;;;;4976624;28;20396;-87
2023/09/28 08:25:35;;;;;;;0.00;0.00;;;;;;;;;;4993881;28;20030;-85
2023/09/28 08:28:03;;;;;;;0.00;0.00;;;;;;;;;;4992685;28;20472;-83
2023/09/28 08:30:30;;;;;;;0.00;0.00;;;;;;;;;;4995321;28;20089;-84
2023/09/28 08:32:56;;;;;;;0.00;0.00;;;;;;;;;;5007569;28;20138;-83
2023/09/28 08:35:23;;;;;;;0.00;0.00;;;;;;;;;;4975488;28;20094;-81
2023/09/28 08:37:48;;;;;;;0.00;0.00;;;;;;;;;;4980579;28;20038;-81
2023/09/28 08:40:32;;;;;;;0.00;0.00;;;;;;;;;;4978466;28;20026;-83
2023/09/28 08:42:59;;;;;;;0.00;0.00;;;;;;;;;;4965077;28;20057;-84
2023/09/28 08:45:29;;;;;;;0.00;0.00;;;;;;;;;;4976939;28;20454;-82
2023/09/28 08:47:55;;;;;;;0.00;0.00;;;;;;;;;;4994986;28;20467;-87
2023/09/28 08:50:27;;;;;;;0.00;0.00;;;;;;;;;;4978535;28;20058;-88
2023/09/28 08:53:08;;;;;;;0.00;0.00;;;;;;;;;;4979255;28;20034;-86
2023/09/28 08:55:33;;;;;;;0.00;0.00;;;;;;;;;;4962629;28;20023;-85
2023/09/28 08:57:59;;;;;;;0.00;0.00;;;;;;;;;;4996633;28;20022;-84
2023/09/28 09:00:26;;;;;;;0.00;0.00;;;;;;;;;;4995295;28;20077;-83
2023/09/28 09:02:52;;;;;;;0.00;0.00;;;;;;;;;;4977681;28;20022;-87
2023/09/28 09:05:17;;;;;;;0.00;0.00;;;;;;;;;;4980635;28;20106;-85
2023/09/28 09:07:43;;;;;;;0.00;0.00;;;;;;;;;;5007658;28;20062;-84
2023/09/28 09:10:12;;;;;;;0.00;0.00;;;;;;;;;;4987645;28;20079;-87
2023/09/28 09:12:37;;;;;;;0.00;0.00;;;;;;;;;;5002184;28;20027;-83
2023/09/28 09:15:04;;;;;;;0.00;0.00;;;;;;;;;;4975489;28;20093;-84
2023/09/28 09:17:33;;;;;;;0.00;0.00;;;;;;;;;;4994583;28;20300;-81
2023/09/28 09:20:05;;;;;;;0.00;0.00;;;;;;;;;;4991270;28;20435;-81
2023/09/28 09:22:30;;;;;;;0.00;0.00;;;;;;;;;;4975339;28;20081;-83
2023/09/28 09:24:57;;;;;;;0.00;0.00;;;;;;;;;;4989368;28;20046;-84
2023/09/28 09:27:30;;;;;;;0.00;0.00;;;;;;;;;;4991765;28;20100;-83
2023/09/28 09:30:02;;;;;;;0.00;0.00;;;;;;;;;;4991960;28;20452;-82
2023/09/28 09:32:28;;;;;;;0.00;0.00;;;;;;;;;;4984166;28;20065;-86
2023/09/28 09:34:54;;;;;;;0.00;0.00;;;;;;;;;;4986422;28;20196;-88
2023/09/28 09:37:20;;;;;;;0.00;0.00;;;;;;;;;;4984532;28;20030;-86
2023/09/28 09:39:45;;;;;;;0.00;0.00;;;;;;;;;;4965963;28;20034;-83
2023/09/28 09:42:11;;;;;;;0.00;0.00;;;;;;;;;;4993689;28;20030;-84
2023/09/28 09:44:37;;;;;;;0.00;0.00;;;;;;;;;;4958982;28;20121;-83
2023/09/28 09:47:03;;;;;;;0.00;0.00;;;;;;;;;;4978446;28;20045;-83
2023/09/28 09:49:29;;;;;;;0.00;0.00;;;;;;;;;;4975178;28;20310;-81
2023/09/28 09:51:54;;;;;;;0.00;0.00;;;;;;;;;;4991581;28;20536;-83
2023/09/28 09:54:20;;;;;;;0.00;0.00;;;;;;;;;;4982626;28;20228;-81
2023/09/28 09:56:49;;;;;;;0.00;0.00;;;;;;;;;;4976571;28;20108;-82
2023/09/28 09:59:18;;;;;;;0.00;0.00;;;;;;;;;;4971721;28;20069;-85
2023/09/28 10:01:47;;;;;;;0.00;0.00;;;;;;;;;;4991922;28;20048;-81
2023/09/28 10:04:14;;;;;;;0.00;0.00;;;;;;;;;;4978652;28;20030;-85
2023/09/28 10:06:40;;;;;;;0.00;0.00;;;;;;;;;;4969222;28;20395;-85
2023/09/28 10:09:10;;;;;;;0.00;0.00;;;;;;;;;;4994417;28;20112;-84
2023/09/28 10:11:37;;;;;;;0.00;0.00;;;;;;;;;;4980087;28;20030;-86
2023/09/28 10:14:03;;;;;;;0.00;0.00;;;;;;;;;;4990143;28;20037;-84
2023/09/28 10:16:29;;;;;;;0.00;0.00;;;;;;;;;;5013950;28;20026;-82
2023/09/28 10:18:55;;;;;;;0.00;0.00;;;;;;;;;;5004633;28;20038;-83
2023/09/28 10:21:21;;;;;;;0.00;0.00;;;;;;;;;;4992837;28;20044;-82
2023/09/28 10:23:47;;;;;;;0.00;0.00;;;;;;;;;;4978992;28;20034;-83
2023/09/28 10:26:14;;;;;;;0.00;0.00;;;;;;;;;;4957091;28;20030;-89
2023/09/28 10:29:13;;;;;;;0.00;0.00;;;;;;;;;;5009241;28;20042;-86
2023/09/28 10:31:41;;;;;;;0.00;0.00;;;;;;;;;;4959636;28;20058;-83
2023/09/28 10:34:08;;;;;;;0.00;0.00;;;;;;;;;;5006164;28;20061;-85
2023/09/28 10:36:34;;;;;;;0.00;0.00;;;;;;;;;;4972356;28;20666;-80
2023/09/28 10:39:15;;;;;;;0.03;0.00;;;;;;;;;;4972003;28;20116;-82
2023/09/28 10:41:51;;;;;;;0.00;0.00;;;;;;;;;;5005854;28;20031;-85
2023/09/28 10:44:20;;;;;;;0.00;0.00;;;;;;;;;;4991227;28;20037;-82
2023/09/28 10:46:48;;;;;;;0.00;0.00;;;;;;;;;;4977550;28;20042;-82
2023/09/28 10:49:24;;;;;;;0.00;0.00;;;;;;;;;;4954929;28;20058;-83
2023/09/28 10:51:55;;;;;;;0.00;0.00;;;;;;;;;;4999734;28;20034;-80
2023/09/28 10:54:21;;;;;;;0.00;0.00;;;;;;;;;;4999351;28;20026;-83
2023/09/28 10:57:10;;;;;;;0.00;0.00;;;;;;;;;;4996438;28;20023;-87
2023/09/28 10:59:41;;;;;;;0.00;0.00;;;;;;;;;;4988390;28;20042;-83
2023/09/28 11:02:08;;;;;;;0.00;0.00;;;;;;;;;;4949386;28;20041;-85
2023/09/28 11:04:36;;;;;;;0.00;0.00;;;;;;;;;;4963446;28;20057;-84
2023/09/28 11:07:03;;;;;;;0.00;0.00;;;;;;;;;;4996748;28;20050;-84
2023/09/28 11:09:29;;;;;;;0.00;0.00;;;;;;;;;;4983907;28;20027;-82
2023/09/28 11:11:55;;;;;;;0.00;0.00;;;;;;;;;;4965697;28;20123;-83
2023/09/28 11:14:20;;;;;;;0.00;0.00;;;;;;;;;;4981345;28;20368;-82
2023/09/28 11:16:49;;;;;;;0.00;0.00;;;;;;;;;;4949135;28;20094;-81
2023/09/28 11:19:14;;;;;;;0.00;0.00;;;;;;;;;;4983067;28;20031;-88
2023/09/28 11:21:41;;;;;;;0.00;0.00;;;;;;;;;;4983095;28;20467;-82
2023/09/28 11:24:11;;;;;;;0.00;0.00;;;;;;;;;;4981675;28;20034;-86
2023/09/28 11:26:38;;;;;;;0.00;0.00;;;;;;;;;;4976746;28;20039;-84
2023/09/28 11:29:04;;;;;;;0.00;0.00;;;;;;;;;;4955396;28;20034;-85
2023/09/28 11:31:35;;;;;;;0.00;0.00;;;;;;;;;;5000702;28;20033;-80
2023/09/28 11:34:01;;;;;;;0.00;0.00;;;;;;;;;;4981524;28;20030;-85
2023/09/28 11:36:27;;;;;;;0.00;0.00;;;;;;;;;;4980170;28;20098;-81
2023/09/28 11:38:53;;;;;;;0.00;0.00;;;;;;;;;;5010648;28;20040;-81
2023/09/28 11:41:21;;;;;;;0.00;0.00;;;;;;;;;;5001278;28;20022;-84
2023/09/28 11:43:47;;;;;;;0.00;0.00;;;;;;;;;;5017806;28;20145;-81
2023/09/28 11:46:23;;;;;;;0.00;0.00;;;;;;;;;;5002861;28;20029;-80
2023/09/28 11:49:05;;;;;;;0.00;0.00;;;;;;;;;;5003457;28;20205;-80
2023/09/28 11:51:34;;;;;;;0.00;0.00;;;;;;;;;;5002672;28;20474;-81
2023/09/28 11:54:11;;;;;;;0.00;0.00;;;;;;;;;;5000350;28;20030;-79
2023/09/28 11:56:37;;;;;;;0.00;0.00;;;;;;;;;;5000660;28;20037;-83
2023/09/28 11:59:03;;;;;;;0.00;0.00;;;;;;;;;;4998686;28;20393;-82
2023/09/28 12:01:29;;;;;;;0.00;0.00;;;;;;;;;;4982564;28;20045;-84
2023/09/28 12:03:56;;;;;;;0.00;0.00;;;;;;;;;;5015463;28;20034;-84
2023/09/28 12:06:22;;;;;;;0.00;0.00;;;;;;;;;;4968050;28;20065;-85
2023/09/28 12:08:47;;;;;;;0.00;0.00;;;;;;;;;;4985800;28;20054;-83
2023/09/28 12:11:13;;;;;;;0.00;0.00;;;;;;;;;;5002409;28;20105;-82
2023/09/28 12:13:39;;;;;;;0.00;0.00;;;;;;;;;;5002260;28;20447;-82
2023/09/28 12:16:08;;;;;;;0.00;0.00;;;;;;;;;;5003323;28;20033;-82
2023/09/28 12:18:34;;;;;;;0.00;0.00;;;;;;;;;;5002758;28;20121;-84
2023/09/28 12:21:00;;;;;;;0.00;0.00;;;;;;;;;;5017143;28;20125;-83
2023/09/28 12:23:25;;;;;;;0.00;0.00;;;;;;;;;;5001846;28;20045;-81
2023/09/28 12:25:54;;;;;;;0.00;0.00;;;;;;;;;;4986007;28;20022;-83
2023/09/28 12:28:22;;;;;;;0.00;0.00;;;;;;;;;;5019479;28;20053;-84
2023/09/28 12:30:47;;;;;;;0.00;0.00;;;;;;;;;;4985901;28;20037;-85
2023/09/28 12:33:13;;;;;;;0.00;0.00;;;;;;;;;;5002240;28;20030;-84
2023/09/28 12:35:39;;;;;;;0.00;0.00;;;;;;;;;;5002016;28;20053;-84
2023/09/28 12:38:07;;;;;;;0.00;0.00;;;;;;;;;;5002644;28;20038;-84
2023/09/28 12:40:33;;;;;;;0.00;0.00;;;;;;;;;;4987963;28;20042;-85
2023/09/28 12:43:01;;;;;;;0.00;0.00;;;;;;;;;;4987526;28;20121;-85
2023/09/28 12:45:27;;;;;;;0.00;0.00;;;;;;;;;;5003513;28;20033;-83
2023/09/28 12:47:53;;;;;;;0.00;0.00;;;;;;;;;;4978860;28;20436;-87
2023/09/28 12:50:19;;;;;;;0.00;0.00;;;;;;;;;;4995024;28;20030;-87
2023/09/28 12:52:44;;;;;;;0.00;0.00;;;;;;;;;;4994665;28;20030;-86
2023/09/28 12:55:10;;;;;;;0.00;0.00;;;;;;;;;;4994984;28;20064;-87
2023/09/28 12:57:36;;;;;;;0.00;0.00;;;;;;;;;;4978121;28;20113;-85
2023/09/28 13:00:02;;;;;;;0.00;0.00;;;;;;;;;;4994353;28;20031;-86
2023/09/28 13:02:28;;;;;;;0.00;0.00;;;;;;;;;;4994675;28;20083;-85
2023/09/28 13:04:53;;;;;;;0.00;0.00;;;;;;;;;;5011512;28;20026;-84
2023/09/28 13:07:20;;;;;;;0.00;0.00;;;;;;;;;;4993837;28;20360;-85
2023/09/28 13:09:46;;;;;;;0.00;0.00;;;;;;;;;;4978397;28;20030;-83
2023/09/28 13:12:12;;;;;;;0.00;0.00;;;;;;;;;;4978215;28;20124;-84
2023/09/28 13:14:39;;;;;;;0.00;0.00;;;;;;;;;;4994581;28;20128;-85
2023/09/28 13:17:06;;;;;;;0.00;0.00;;;;;;;;;;5010379;28;20026;-83
2023/09/28 13:19:31;;;;;;;0.00;0.00;;;;;;;;;;4994688;28;20174;-81
2023/09/28 13:21:57;;;;;;;0.00;0.00;;;;;;;;;;4977533;28;20057;-80
2023/09/28 13:24:23;;;;;;;0.00;0.00;;;;;;;;;;4993979;28;20034;-79
2023/09/28 13:26:49;;;;;;;0.00;0.00;;;;;;;;;;4993776;28;20428;-79
2023/09/28 13:29:17;;;;;;;0.00;0.00;;;;;;;;;;4993857;28;20381;-81
2023/09/28 13:31:43;;;;;;;0.00;0.00;;;;;;;;;;4977812;28;20068;-81
2023/09/28 13:34:11;;;;;;;0.00;0.00;;;;;;;;;;4994107;28;20085;-80
2023/09/28 13:36:36;;;;;;;0.00;0.00;;;;;;;;;;4993252;28;20032;-80
2023/09/28 13:39:04;;;;;;;0.00;0.00;;;;;;;;;;4977725;28;20128;-80
2023/09/28 13:41:30;;;;;;;0.00;0.00;;;;;;;;;;4977541;28;20076;-81
2023/09/28 13:43:56;;;;;;;0.00;0.00;;;;;;;;;;4994738;28;20072;-82
2023/09/28 13:46:22;;;;;;;0.00;0.00;;;;;;;;;;4994743;28;20022;-81
2023/09/28 13:48:48;;;;;;;0.00;0.00;;;;;;;;;;5009664;28;20045;-82
2023/09/28 13:51:13;;;;;;;0.00;0.00;;;;;;;;;;4994456;28;20031;-81
2023/09/28 13:53:41;;;;;;;0.00;0.00;;;;;;;;;;4977681;28;20034;-82
2023/09/28 13:56:07;;;;;;;0.00;0.00;;;;;;;;;;4960644;28;20042;-79
2023/09/28 13:58:34;;;;;;;0.00;0.00;;;;;;;;;;4994937;28;20168;-80
2023/09/28 14:00:59;;;;;;;0.00;0.00;;;;;;;;;;4994845;28;20030;-79
2023/09/28 14:03:25;;;;;;;0.00;0.00;;;;;;;;;;4977516;28;20026;-80
2023/09/28 14:05:51;;;;;;;0.00;0.00;;;;;;;;;;5009456;28;20030;-84
2023/09/28 14:08:17;;;;;;;0.00;0.00;;;;;;;;;;5009430;28;20057;-81
2023/09/28 14:10:43;;;;;;;0.00;0.00;;;;;;;;;;4992425;28;20026;-80
2023/09/28 14:13:09;;;;;;;0.00;0.00;;;;;;;;;;4975706;28;20140;-79
2023/09/28 14:15:34;;;;;;;0.00;0.00;;;;;;;;;;4991934;28;20029;-86
2023/09/28 14:18:14;;;;;;;0.00;0.00;;;;;;;;;;4991765;28;20037;-88
2023/09/28 14:24:50;;;;;;;;;;;;;;;;;;;;;
2023/09/28 14:27:47;;;;;;;0.00;0.00;;;;;;;;;;4973990;28;20035;-92
2023/09/28 14:31:01;;;;;;;0.00;0.00;;;;;;;;;;4957043;28;20441;-90
2023/09/28 14:33:45;;;;;;;0.00;0.00;;;;;;;;;;4960030;28;20054;-90
2023/09/28 14:36:16;;;;;;;0.00;0.00;;;;;;;;;;4968766;28;20035;-88
2023/09/28 14:42:31;;;;;;;0.00;0.00;;;;;;;;;;4985838;28;20185;-89
2023/09/28 14:44:59;;;;;;;0.00;0.00;;;;;;;;;;4950401;28;20042;-88
2023/09/28 14:47:35;;;;;;;0.00;0.00;;;;;;;;;;5013212;28;20030;-88
2023/09/28 14:50:02;;;;;;;0.00;0.00;;;;;;;;;;4995767;28;20403;-89
2023/09/28 14:52:35;;;;;;;0.00;0.00;;;;;;;;;;4997218;28;20089;-92
2023/09/28 14:55:27;;;;;;;0.00;0.00;;;;;;;;;;4964871;28;20057;-91
2023/09/28 14:57:53;;;;;;;0.00;0.00;;;;;;;;;;4982162;28;20042;-93
2023/09/28 15:00:19;;;;;;;0.00;0.00;;;;;;;;;;4981009;28;20022;-93
2023/09/28 15:02:46;;;;;;;0.00;0.00;;;;;;;;;;5013302;28;20033;-92
2023/09/28 15:05:12;;;;;;;0.00;0.00;;;;;;;;;;4996626;28;20088;-91
2023/09/28 15:07:38;;;;;;;0.00;0.00;;;;;;;;;;4995562;28;20046;-93